createdAt,value
2023-04-01T00:01:27.263Z,95565.13
2023-04-01T00:03:58.829Z,95572.50
2023-04-01T00:06:30.870Z,95578.28
2023-04-01T00:09:02.485Z,95576.91
2023-04-01T00:11:34.135Z,95576.03
2023-04-01T00:14:06.036Z,95590.81
2023-04-01T00:16:37.883Z,95577.97
2023-04-01T00:19:09.658Z,95585.53
2023-04-01T00:21:41.262Z,95570.91
2023-04-01T00:24:12.954Z,95587.03
2023-04-01T00:26:45.557Z,95584.59
2023-04-01T00:29:17.076Z,95584.13
2023-04-01T00:31:50.222Z,95588.91
2023-04-01T00:34:22.071Z,95592.25
2023-04-01T00:36:55.056Z,95601.44
2023-04-01T00:39:29.228Z,95590.25
2023-04-01T00:42:02.315Z,95598.16
2023-04-01T00:44:35.368Z,95601.97
2023-04-01T00:47:07.354Z,95598.66
2023-04-01T00:49:43.372Z,95609.50
2023-04-01T00:52:23.571Z,95615.19
2023-04-01T00:55:02.037Z,95604.25
2023-04-01T00:57:37.590Z,95621.13
2023-04-01T01:00:13.750Z,95617.66
2023-04-01T01:02:50.203Z,95624.69
2023-04-01T01:05:48.101Z,95626.88
2023-04-01T01:09:00.963Z,95631.22
2023-04-01T01:11:43.993Z,95627.81
2023-04-01T01:14:49.685Z,95613.41
2023-04-01T01:17:46.451Z,95608.56
2023-04-01T01:20:49.149Z,95609.38
2023-04-01T01:24:06.930Z,95608.16
2023-04-01T01:27:21.716Z,95607.34
2023-04-01T01:30:02.322Z,95597.47
2023-04-01T01:32:48.585Z,95585.22
2023-04-01T01:35:38.470Z,95585.69
2023-04-01T01:38:16.183Z,95573.47
2023-04-01T01:40:54.738Z,95581.28
2023-04-01T01:43:32.721Z,95576.84
2023-04-01T01:46:12.767Z,95568.09
2023-04-01T01:48:48.997Z,95569.97
2023-04-01T01:51:23.260Z,95563.75
2023-04-01T01:53:55.681Z,95561.84
2023-04-01T01:56:30.313Z,95567.28
2023-04-01T01:59:08.639Z,95559.00
2023-04-01T02:01:46.027Z,95567.50
2023-04-01T02:04:19.367Z,95567.97
2023-04-01T02:07:00.850Z,95552.00
2023-04-01T02:09:32.650Z,95555.94
2023-04-01T02:12:09.245Z,95554.44
2023-04-01T02:15:06.212Z,95558.25
2023-04-01T02:17:44.579Z,95561.22
2023-04-01T02:20:22.003Z,95569.28
2023-04-01T02:23:00.595Z,95566.25
2023-04-01T02:25:37.037Z,95565.84
2023-04-01T02:28:10.079Z,95570.63
2023-04-01T02:30:44.622Z,95560.91
2023-04-01T02:33:16.574Z,95562.03
2023-04-01T02:35:48.560Z,95561.41
2023-04-01T02:38:23.633Z,95556.16
2023-04-01T02:41:01.783Z,95564.47
2023-04-01T02:43:33.539Z,95566.13
2023-04-01T02:46:05.112Z,95565.84
2023-04-01T02:48:36.617Z,95564.66
2023-04-01T02:51:13.877Z,95562.69
2023-04-01T02:53:45.368Z,95565.81
2023-04-01T02:56:16.890Z,95569.66
2023-04-01T02:58:48.850Z,95575.84
2023-04-01T03:01:21.575Z,95557.38
2023-04-01T03:03:53.159Z,95556.09
2023-04-01T03:06:24.753Z,95547.44
2023-04-01T03:08:56.262Z,95567.66
2023-04-01T03:11:27.949Z,95566.56
2023-04-01T03:13:59.593Z,95564.63
2023-04-01T03:16:31.215Z,95563.09
2023-04-01T03:19:03.264Z,95557.16
2023-04-01T03:21:34.833Z,95569.72
2023-04-01T03:24:07.221Z,95561.28
2023-04-01T03:26:38.722Z,95560.28
2023-04-01T03:29:10.336Z,95563.81
2023-04-01T03:31:41.856Z,95568.88
2023-04-01T03:34:13.361Z,95562.66
2023-04-01T03:36:44.917Z,95561.34
2023-04-01T03:39:19.581Z,95576.03
2023-04-01T03:41:51.185Z,95565.66
2023-04-01T03:44:22.738Z,95573.91
2023-04-01T03:46:54.270Z,95578.69
2023-04-01T03:49:25.796Z,95582.38
2023-04-01T03:51:57.268Z,95579.94
2023-04-01T03:54:28.798Z,95570.44
2023-04-01T03:57:00.381Z,95577.47
2023-04-01T03:59:32.089Z,95572.13
2023-04-01T04:02:04.294Z,95562.69
2023-04-01T04:04:36.499Z,95562.00
2023-04-01T04:07:08.375Z,95550.09
2023-04-01T04:09:40.042Z,95555.56
2023-04-01T04:12:11.654Z,95558.13
2023-04-01T04:14:43.222Z,95542.97
2023-04-01T04:17:19.402Z,95562.50
2023-04-01T04:19:50.934Z,95567.38
2023-04-01T04:22:22.521Z,95568.91
2023-04-01T04:24:54.117Z,95566.81
2023-04-01T04:27:25.869Z,95569.66
2023-04-01T04:29:57.424Z,95558.59
2023-04-01T04:32:31.912Z,95576.63
2023-04-01T04:35:03.721Z,95575.13
2023-04-01T04:37:35.505Z,95574.38
2023-04-01T04:40:09.241Z,95583.84
2023-04-01T04:42:40.953Z,95585.13
2023-04-01T04:45:13.682Z,95583.44
2023-04-01T04:47:45.303Z,95586.66
2023-04-01T04:50:18.163Z,95598.81
2023-04-01T04:52:49.652Z,95592.66
2023-04-01T04:55:22.168Z,95598.38
2023-04-01T04:57:53.735Z,95593.84
2023-04-01T05:00:25.356Z,95595.31
2023-04-01T05:02:56.964Z,95596.66
2023-04-01T05:05:28.635Z,95601.78
2023-04-01T05:08:00.259Z,95588.97
2023-04-01T05:10:32.440Z,95583.38
2023-04-01T05:13:03.913Z,95588.81
2023-04-01T05:15:36.939Z,95600.38
2023-04-01T05:18:08.650Z,95585.69
2023-04-01T05:20:40.191Z,95588.75
2023-04-01T05:23:12.383Z,95591.59
2023-04-01T05:25:44.428Z,95576.28
2023-04-01T05:28:16.430Z,95583.44
2023-04-01T05:30:51.477Z,95582.81
2023-04-01T05:33:23.198Z,95589.66
2023-04-01T05:35:55.861Z,95585.66
2023-04-01T05:38:27.460Z,95589.66
2023-04-01T05:41:04.071Z,95598.28
2023-04-01T05:43:40.057Z,95595.91
2023-04-01T05:46:18.706Z,95594.97
2023-04-01T05:48:50.282Z,95598.81
2023-04-01T05:51:22.404Z,95596.63
2023-04-01T05:53:56.091Z,95599.06
2023-04-01T05:56:29.942Z,95598.44
2023-04-01T05:59:01.523Z,95595.31
2023-04-01T06:01:33.152Z,95608.03
2023-04-01T06:04:04.843Z,95600.56
2023-04-01T06:06:37.196Z,95605.63
2023-04-01T06:09:31.355Z,95605.38
2023-04-01T06:12:09.011Z,95607.31
2023-04-01T06:14:59.160Z,95592.22
2023-04-01T06:18:22.392Z,95594.59
2023-04-01T06:21:14.591Z,95605.72
2023-04-01T06:24:01.390Z,95612.81
2023-04-01T06:26:50.094Z,95593.91
2023-04-01T06:29:33.654Z,95605.97
2023-04-01T06:32:42.903Z,95603.66
2023-04-01T06:35:40.602Z,95606.78
2023-04-01T06:39:02.780Z,95599.72
2023-04-01T06:42:00.394Z,95612.00
2023-04-01T06:44:52.593Z,95605.75
2023-04-01T06:48:10.173Z,95613.81
2023-04-01T06:51:05.589Z,95613.91
2023-04-01T06:54:13.126Z,95608.94
2023-04-01T06:56:49.434Z,95608.06
2023-04-01T06:59:29.245Z,95600.66
2023-04-01T07:02:45.827Z,95597.13
2023-04-01T07:05:17.436Z,95599.75
2023-04-01T07:07:54.679Z,95595.44
2023-04-01T07:10:54.520Z,95598.72
2023-04-01T07:13:33.190Z,95594.44
2023-04-01T07:16:35.603Z,95575.59
2023-04-01T07:19:21.879Z,95567.41
2023-04-01T07:21:59.386Z,95560.47
2023-04-01T07:24:46.309Z,95569.41
2023-04-01T07:27:17.827Z,95568.69
2023-04-01T07:29:49.375Z,95567.81
2023-04-01T07:32:40.228Z,95577.47
2023-04-01T07:35:27.793Z,95586.53
2023-04-01T07:38:18.789Z,95579.19
2023-04-01T07:41:04.494Z,95592.28
2023-04-01T07:43:44.178Z,95599.91
2023-04-01T07:47:05.926Z,95577.47
2023-04-01T07:50:10.599Z,95587.44
2023-04-01T07:53:29.000Z,95585.13
2023-04-01T07:56:28.454Z,95591.63
2023-04-01T07:59:12.576Z,95597.50
2023-04-01T08:01:57.529Z,95594.75
2023-04-01T08:05:02.772Z,95589.66
2023-04-01T08:08:11.747Z,95572.81
2023-04-01T08:11:28.297Z,95572.75
2023-04-01T08:14:37.926Z,95578.63
2023-04-01T08:17:54.751Z,95576.75
2023-04-01T08:20:47.265Z,95576.47
2023-04-01T08:23:45.800Z,95579.56
2023-04-01T08:26:27.142Z,95592.69
2023-04-01T08:29:03.874Z,95596.22
2023-04-01T08:32:07.847Z,95584.47
2023-04-01T08:34:45.005Z,95593.53
2023-04-01T08:37:26.123Z,95601.53
2023-04-01T08:40:40.835Z,95588.25
2023-04-01T08:43:44.719Z,95582.72
2023-04-01T08:46:57.802Z,95592.25
2023-04-01T08:50:02.767Z,95600.88
2023-04-01T08:53:00.855Z,95600.47
2023-04-01T08:55:52.462Z,95599.81
2023-04-01T08:59:18.986Z,95596.69
2023-04-01T09:02:08.643Z,95599.38
2023-04-01T09:05:23.694Z,95600.47
2023-04-01T09:08:26.590Z,95599.38
2023-04-01T09:11:29.597Z,95612.31
2023-04-01T09:14:25.570Z,95619.28
2023-04-01T09:17:41.256Z,95614.44
2023-04-01T09:20:47.404Z,95617.72
2023-04-01T09:23:41.482Z,95614.91
2023-04-01T09:26:59.757Z,95615.78
2023-04-01T09:29:49.814Z,95622.44
2023-04-01T09:32:49.383Z,95636.44
2023-04-01T09:35:48.466Z,95629.88
2023-04-01T09:38:42.106Z,95618.31
2023-04-01T09:41:40.633Z,95622.88
2023-04-01T09:44:51.839Z,95619.91
2023-04-01T09:48:03.460Z,95630.78
2023-04-01T09:51:06.239Z,95633.94
2023-04-01T09:53:55.899Z,95625.03
2023-04-01T09:57:32.003Z,95635.16
2023-04-01T10:01:14.548Z,95637.75
2023-04-01T10:04:31.143Z,95647.03
2023-04-01T10:08:11.861Z,95634.34
2023-04-01T10:11:45.612Z,95625.25
2023-04-01T10:14:24.764Z,95627.59
2023-04-01T10:17:27.305Z,95634.59
2023-04-01T10:20:35.625Z,95634.38
2023-04-01T10:23:21.872Z,95633.13
2023-04-01T10:26:31.606Z,95627.72
2023-04-01T10:29:29.532Z,95634.78
2023-04-01T10:32:42.919Z,95622.50
2023-04-01T10:35:35.718Z,95636.09
2023-04-01T10:38:38.167Z,95617.50
2023-04-01T10:41:56.822Z,95634.78
2023-04-01T10:45:19.381Z,95639.88
2023-04-01T10:48:18.432Z,95626.97
2023-04-01T10:51:15.941Z,95620.09
2023-04-01T10:54:11.191Z,95613.63
2023-04-01T10:56:52.842Z,95617.75
2023-04-01T11:00:00.278Z,95631.34
2023-04-01T11:02:46.748Z,95619.03
2023-04-01T11:05:27.356Z,95621.59
2023-04-01T11:08:51.573Z,95620.31
2023-04-01T11:12:24.342Z,95611.03
2023-04-01T11:15:21.129Z,95619.25
2023-04-01T11:18:32.474Z,95628.25
2023-04-01T11:21:54.458Z,95622.69
2023-04-01T11:25:12.249Z,95625.16
2023-04-01T11:28:25.034Z,95629.63
2023-04-01T11:31:47.542Z,95627.78
2023-04-01T11:34:47.847Z,95609.69
2023-04-01T11:37:58.931Z,95623.13
2023-04-01T11:40:41.570Z,95611.84
2023-04-01T11:43:33.766Z,95614.53
2023-04-01T11:46:16.225Z,95609.22
2023-04-01T11:49:20.255Z,95617.47
2023-04-01T11:52:39.324Z,95609.25
2023-04-01T11:55:43.563Z,95618.00
2023-04-01T11:58:42.938Z,95611.25
2023-04-01T12:01:30.919Z,95618.28
2023-04-01T12:04:57.884Z,95623.88
2023-04-01T12:07:48.151Z,95609.97
2023-04-01T12:10:27.335Z,95614.22
2023-04-01T12:13:11.852Z,95616.63
2023-04-01T12:16:10.989Z,95611.66
2023-04-01T12:18:51.379Z,95612.09
2023-04-01T12:21:53.755Z,95605.16
2023-04-01T12:24:49.235Z,95622.91
2023-04-01T12:28:05.706Z,95614.72
2023-04-01T12:31:02.481Z,95625.41
2023-04-01T12:34:14.276Z,95639.09
2023-04-01T12:37:15.675Z,95631.47
2023-04-01T12:40:07.240Z,95628.75
2023-04-01T12:43:03.558Z,95637.84
2023-04-01T12:45:48.289Z,95633.50
2023-04-01T12:48:57.417Z,95637.41
2023-04-01T12:51:59.343Z,95660.63
2023-04-01T12:55:28.095Z,95633.44
2023-04-01T12:58:47.192Z,95653.56
2023-04-01T13:01:32.535Z,95649.72
2023-04-01T13:04:36.761Z,95659.22
2023-04-01T13:07:38.845Z,95652.72
2023-04-01T13:10:36.720Z,95655.72
2023-04-01T13:14:30.869Z,95648.28
2023-04-01T13:17:12.265Z,95647.03
2023-04-01T13:20:04.977Z,95647.91
2023-04-01T13:22:51.096Z,95649.38
2023-04-01T13:26:13.808Z,95658.03
2023-04-01T13:29:29.018Z,95666.94
2023-04-01T13:32:18.918Z,95654.66
2023-04-01T13:35:23.071Z,95647.81
2023-04-01T13:38:50.778Z,95655.84
2023-04-01T13:41:52.135Z,95664.56
2023-04-01T13:44:47.861Z,95667.09
2023-04-01T13:47:57.082Z,95661.38
2023-04-01T13:51:08.259Z,95661.50
2023-04-01T13:54:04.776Z,95662.47
2023-04-01T13:57:17.949Z,95656.06
2023-04-01T14:00:19.535Z,95652.94
2023-04-01T14:03:20.843Z,95649.72
2023-04-01T14:06:16.108Z,95655.22
2023-04-01T14:09:46.336Z,95656.31
2023-04-01T14:12:39.867Z,95657.09
2023-04-01T14:15:49.600Z,95658.66
2023-04-01T14:18:58.062Z,95647.94
2023-04-01T14:21:59.652Z,95656.88
2023-04-01T14:25:00.617Z,95647.59
2023-04-01T14:27:50.696Z,95647.59
2023-04-01T14:30:43.974Z,95641.78
2023-04-01T14:33:21.610Z,95636.78
2023-04-01T14:36:26.257Z,95645.84
2023-04-01T14:39:49.108Z,95638.47
2023-04-01T14:42:46.329Z,95646.88
2023-04-01T14:45:46.575Z,95631.97
2023-04-01T14:48:49.309Z,95639.28
2023-04-01T14:51:31.925Z,95641.59
2023-04-01T14:54:12.650Z,95638.69
2023-04-01T14:56:49.383Z,95645.69
2023-04-01T14:59:23.968Z,95639.94
2023-04-01T15:02:32.350Z,95642.88
2023-04-01T15:05:28.438Z,95638.69
2023-04-01T15:08:20.167Z,95652.53
2023-04-01T15:11:02.082Z,95663.53
2023-04-01T15:13:50.419Z,95657.75
2023-04-01T15:16:40.655Z,95653.38
2023-04-01T15:19:51.325Z,95643.88
2023-04-01T15:22:31.983Z,95645.34
2023-04-01T15:25:40.012Z,95650.75
2023-04-01T15:28:54.175Z,95650.47
2023-04-01T15:31:37.905Z,95647.06
2023-04-01T15:34:27.345Z,95650.81
2023-04-01T15:37:44.126Z,95662.47
2023-04-01T15:40:41.378Z,95668.03
2023-04-01T15:43:25.031Z,95674.22
2023-04-01T15:46:09.393Z,95674.72
2023-04-01T15:49:16.827Z,95674.94
2023-04-01T15:52:14.638Z,95663.97
2023-04-01T15:55:37.490Z,95671.56
2023-04-01T15:58:40.916Z,95668.03
2023-04-01T16:01:52.535Z,95669.59
2023-04-01T16:04:59.351Z,95658.88
2023-04-01T16:07:58.146Z,95656.06
2023-04-01T16:10:44.853Z,95652.31
2023-04-01T16:13:49.869Z,95646.25
2023-04-01T16:17:05.918Z,95649.78
2023-04-01T16:20:08.813Z,95650.78
2023-04-01T16:23:27.366Z,95645.38
2023-04-01T16:26:27.597Z,95653.91
2023-04-01T16:29:42.377Z,95671.31
2023-04-01T16:32:42.758Z,95678.25
2023-04-01T16:35:47.329Z,95677.56
2023-04-01T16:38:31.239Z,95676.69
2023-04-01T16:41:21.561Z,95686.41
2023-04-01T16:44:00.643Z,95682.97
2023-04-01T16:46:46.374Z,95681.88
2023-04-01T16:49:38.689Z,95686.78
2023-04-01T16:52:10.849Z,95679.09
2023-04-01T16:55:02.714Z,95679.97
2023-04-01T16:58:00.978Z,95677.47
2023-04-01T17:00:48.961Z,95685.38
2023-04-01T17:03:32.952Z,95689.91
2023-04-01T17:06:33.683Z,95683.81
2023-04-01T17:09:42.754Z,95688.16
2023-04-01T17:12:36.490Z,95694.03
2023-04-01T17:15:45.350Z,95698.78
2023-04-01T17:19:15.954Z,95701.56
2023-04-01T17:22:17.485Z,95703.25
2023-04-01T17:25:11.286Z,95702.22
2023-04-01T17:28:37.206Z,95698.28
2023-04-01T17:31:19.606Z,95715.47
2023-04-01T17:34:25.254Z,95720.59
2023-04-01T17:37:21.053Z,95723.06
2023-04-01T17:40:30.599Z,95719.72
2023-04-01T17:43:28.358Z,95731.34
2023-04-01T17:46:33.509Z,95722.59
2023-04-01T17:49:25.907Z,95730.97
2023-04-01T17:52:41.373Z,95727.03
2023-04-01T17:55:46.493Z,95734.38
2023-04-01T17:58:21.960Z,95734.19
2023-04-01T18:01:24.373Z,95734.13
2023-04-01T18:04:45.201Z,95744.94
2023-04-01T18:07:30.744Z,95734.00
2023-04-01T18:10:14.958Z,95725.56
2023-04-01T18:13:01.842Z,95736.31
2023-04-01T18:16:18.971Z,95726.25
2023-04-01T18:19:22.923Z,95729.00
2023-04-01T18:22:10.665Z,95728.00
2023-04-01T18:24:56.380Z,95722.44
2023-04-01T18:27:39.533Z,95738.13
2023-04-01T18:30:29.385Z,95742.25
2023-04-01T18:33:31.878Z,95742.34
2023-04-01T18:36:47.933Z,95737.69
2023-04-01T18:39:48.016Z,95749.22
2023-04-01T18:43:02.623Z,95749.69
2023-04-01T18:45:42.448Z,95755.69
2023-04-01T18:48:47.299Z,95747.63
2023-04-01T18:51:40.869Z,95754.00
2023-04-01T18:54:31.270Z,95761.44
2023-04-01T18:57:14.510Z,95758.09
2023-04-01T19:00:14.719Z,95768.16
2023-04-01T19:03:11.587Z,95760.53
2023-04-01T19:05:48.592Z,95763.34
2023-04-01T19:08:35.280Z,95772.84
2023-04-01T19:11:39.850Z,95769.44
2023-04-01T19:15:06.443Z,95788.63
2023-04-01T19:18:27.218Z,95795.25
2023-04-01T19:21:39.517Z,95793.00
2023-04-01T19:25:05.154Z,95796.25
2023-04-01T19:27:46.905Z,95797.09
2023-04-01T19:30:47.629Z,95806.75
2023-04-01T19:33:28.348Z,95793.63
2023-04-01T19:36:44.808Z,95793.59
2023-04-01T19:39:49.803Z,95790.50
2023-04-01T19:43:03.688Z,95802.03
2023-04-01T19:45:53.416Z,95788.75
2023-04-01T19:49:11.731Z,95798.59
2023-04-01T19:52:01.825Z,95796.81
2023-04-01T19:55:08.759Z,95799.41
2023-04-01T19:58:16.040Z,95796.63
2023-04-01T20:00:55.882Z,95801.19
2023-04-01T20:04:01.730Z,95802.94
2023-04-01T20:06:37.359Z,95799.25
2023-04-01T20:09:47.010Z,95803.50
2023-04-01T20:12:43.614Z,95794.88
2023-04-01T20:15:46.690Z,95804.72
2023-04-01T20:18:35.068Z,95809.00
2023-04-01T20:21:31.397Z,95806.56
2023-04-01T20:24:15.471Z,95817.56
2023-04-01T20:27:16.578Z,95816.78
2023-04-01T20:30:29.130Z,95820.59
2023-04-01T20:33:54.961Z,95822.34
2023-04-01T20:36:56.495Z,95823.38
2023-04-01T20:39:44.740Z,95825.94
2023-04-01T20:42:41.168Z,95829.84
2023-04-01T20:46:13.255Z,95831.44
2023-04-01T20:49:17.175Z,95838.78
2023-04-01T20:52:08.416Z,95831.91
2023-04-01T20:55:18.363Z,95854.13
2023-04-01T20:58:18.837Z,95847.06
2023-04-01T21:01:30.954Z,95849.94
2023-04-01T21:04:38.519Z,95858.59
2023-04-01T21:07:43.584Z,95863.34
2023-04-01T21:10:41.051Z,95860.03
2023-04-01T21:13:47.472Z,95869.47
2023-04-01T21:16:38.644Z,95880.00
2023-04-01T21:19:31.456Z,95877.34
2023-04-01T21:22:36.606Z,95873.56
2023-04-01T21:25:48.984Z,95877.34
2023-04-01T21:28:52.461Z,95871.91
2023-04-01T21:32:00.793Z,95872.22
2023-04-01T21:34:58.258Z,95878.69
2023-04-01T21:37:41.980Z,95874.81
2023-04-01T21:40:38.372Z,95880.56
2023-04-01T21:43:33.991Z,95883.28
2023-04-01T21:46:26.251Z,95888.59
2023-04-01T21:49:39.693Z,95895.50
2023-04-01T21:53:00.012Z,95896.25
2023-04-01T21:56:10.137Z,95883.63
2023-04-01T21:59:02.608Z,95880.41
2023-04-01T22:02:12.386Z,95879.63
2023-04-01T22:05:15.136Z,95882.50
2023-04-01T22:08:21.059Z,95884.22
2023-04-01T22:11:33.552Z,95892.97
2023-04-01T22:14:38.604Z,95899.03
2023-04-01T22:17:26.670Z,95893.25
2023-04-01T22:20:25.300Z,95891.44
2023-04-01T22:23:32.120Z,95890.84
2023-04-01T22:26:45.856Z,95890.59
2023-04-01T22:29:35.495Z,95902.69
2023-04-01T22:32:18.006Z,95903.75
2023-04-01T22:35:28.967Z,95906.00
2023-04-01T22:38:40.581Z,95908.06
2023-04-01T22:41:41.949Z,95902.94
2023-04-01T22:44:35.488Z,95912.22
2023-04-01T22:47:27.345Z,95916.44
2023-04-01T22:50:11.913Z,95922.19
2023-04-01T22:52:49.313Z,95926.56
2023-04-01T22:55:33.203Z,95931.88
2023-04-01T22:58:18.203Z,95929.91
2023-04-01T23:01:01.141Z,95937.50
2023-04-01T23:03:37.299Z,95936.91
2023-04-01T23:06:22.973Z,95939.94
2023-04-01T23:09:19.780Z,95936.56
2023-04-01T23:11:56.492Z,95929.16
2023-04-01T23:14:47.204Z,95935.38
2023-04-01T23:17:39.484Z,95929.00
2023-04-01T23:20:32.778Z,95934.31
2023-04-01T23:23:21.419Z,95935.38
2023-04-01T23:26:26.473Z,95937.72
2023-04-01T23:29:00.492Z,95932.28
2023-04-01T23:32:04.508Z,95932.28
2023-04-01T23:34:37.156Z,95938.19
2023-04-01T23:37:17.040Z,95945.66
2023-04-01T23:39:58.437Z,95941.63
2023-04-01T23:42:40.290Z,95945.91
2023-04-01T23:45:20.791Z,95950.59
2023-04-01T23:47:53.278Z,95941.03
2023-04-01T23:50:26.484Z,95947.88
2023-04-01T23:53:11.984Z,95943.66
2023-04-01T23:55:43.813Z,95939.84
2023-04-01T23:58:26.953Z,95950.25
